sensor_id;sensor_type;location;lat;lon;timestamp;P1;durP1;ratioP1;P2;durP2;ratioP2
19038;SDS011;9652;49.014;12.052;2023-07-31T00:00:42;2.07;;;1.63;;
19038;SDS011;9652;49.014;12.052;2023-07-31T00:03:11;2.27;;;1.57;;
19038;SDS011;9652;49.014;12.052;2023-07-31T00:05:38;1.87;;;1.77;;
19038;SDS011;9652;49.014;12.052;2023-07-31T00:08:07;2.20;;;1.73;;
19038;SDS011;9652;49.014;12.052;2023-07-31T00:10:34;1.80;;;1.70;;
19038;SDS011;9652;49.014;12.052;2023-07-31T00:13:01;2.63;;;2.03;;
19038;SDS011;9652;49.014;12.052;2023-07-31T00:15:28;4.00;;;1.63;;
19038;SDS011;9652;49.014;12.052;2023-07-31T00:17:55;2.60;;;1.90;;
19038;SDS011;9652;49.014;12.052;2023-07-31T00:20:22;2.87;;;1.70;;
19038;SDS011;9652;49.014;12.052;2023-07-31T00:22:49;2.17;;;1.77;;
19038;SDS011;9652;49.014;12.052;2023-07-31T00:25:17;2.20;;;1.63;;
19038;SDS011;9652;49.014;12.052;2023-07-31T00:27:44;1.80;;;1.70;;
19038;SDS011;9652;49.014;12.052;2023-07-31T00:30:11;2.47;;;1.90;;
19038;SDS011;9652;49.014;12.052;2023-07-31T00:32:38;2.00;;;1.80;;
19038;SDS011;9652;49.014;12.052;2023-07-31T00:35:05;2.40;;;1.93;;
19038;SDS011;9652;49.014;12.052;2023-07-31T00:37:32;3.93;;;1.73;;
19038;SDS011;9652;49.014;12.052;2023-07-31T00:39:59;2.27;;;1.90;;
19038;SDS011;9652;49.014;12.052;2023-07-31T00:42:30;1.67;;;1.57;;
19038;SDS011;9652;49.014;12.052;2023-07-31T00:44:57;3.50;;;2.00;;
19038;SDS011;9652;49.014;12.052;2023-07-31T00:47:24;1.93;;;1.83;;
19038;SDS011;9652;49.014;12.052;2023-07-31T00:49:52;2.03;;;1.57;;
19038;SDS011;9652;49.014;12.052;2023-07-31T00:52:19;2.07;;;1.80;;
19038;SDS011;9652;49.014;12.052;2023-07-31T00:54:48;2.43;;;1.77;;
19038;SDS011;9652;49.014;12.052;2023-07-31T00:57:15;2.33;;;1.80;;
19038;SDS011;9652;49.014;12.052;2023-07-31T00:59:44;1.60;;;1.50;;
19038;SDS011;9652;49.014;12.052;2023-07-31T01:02:12;2.00;;;1.80;;
19038;SDS011;9652;49.014;12.052;2023-07-31T01:04:39;2.00;;;1.80;;
19038;SDS011;9652;49.014;12.052;2023-07-31T01:07:11;2.50;;;1.67;;
19038;SDS011;9652;49.014;12.052;2023-07-31T01:09:49;2.33;;;2.07;;
19038;SDS011;9652;49.014;12.052;2023-07-31T01:12:29;2.47;;;1.87;;
19038;SDS011;9652;49.014;12.052;2023-07-31T01:15:06;2.00;;;1.80;;
19038;SDS011;9652;49.014;12.052;2023-07-31T01:17:36;2.00;;;1.80;;
19038;SDS011;9652;49.014;12.052;2023-07-31T01:20:04;2.10;;;1.80;;
19038;SDS011;9652;49.014;12.052;2023-07-31T01:25:56;1.80;;;1.60;;
19038;SDS011;9652;49.014;12.052;2023-07-31T01:28:33;2.30;;;1.70;;
19038;SDS011;9652;49.014;12.052;2023-07-31T01:31:11;2.00;;;1.50;;
19038;SDS011;9652;49.014;12.052;2023-07-31T01:33:44;2.73;;;1.80;;
19038;SDS011;9652;49.014;12.052;2023-07-31T01:36:13;2.50;;;1.90;;
19038;SDS011;9652;49.014;12.052;2023-07-31T01:38:40;1.77;;;1.63;;
19038;SDS011;9652;49.014;12.052;2023-07-31T01:41:09;3.90;;;1.70;;
19038;SDS011;9652;49.014;12.052;2023-07-31T01:43:36;3.23;;;1.60;;
19038;SDS011;9652;49.014;12.052;2023-07-31T01:46:04;1.67;;;1.53;;
19038;SDS011;9652;49.014;12.052;2023-07-31T01:48:31;1.93;;;1.83;;
19038;SDS011;9652;49.014;12.052;2023-07-31T01:51:02;1.90;;;1.50;;
19038;SDS011;9652;49.014;12.052;2023-07-31T01:53:29;1.87;;;1.73;;
19038;SDS011;9652;49.014;12.052;2023-07-31T01:55:57;3.33;;;1.70;;
19038;SDS011;9652;49.014;12.052;2023-07-31T01:58:26;2.23;;;2.00;;
19038;SDS011;9652;49.014;12.052;2023-07-31T02:00:53;2.37;;;2.03;;
19038;SDS011;9652;49.014;12.052;2023-07-31T02:03:20;2.00;;;1.73;;
19038;SDS011;9652;49.014;12.052;2023-07-31T02:05:50;2.77;;;1.97;;
19038;SDS011;9652;49.014;12.052;2023-07-31T02:08:17;2.73;;;1.83;;
19038;SDS011;9652;49.014;12.052;2023-07-31T02:10:45;1.70;;;1.60;;
19038;SDS011;9652;49.014;12.052;2023-07-31T02:13:12;3.40;;;2.07;;
19038;SDS011;9652;49.014;12.052;2023-07-31T02:15:40;2.77;;;1.80;;
19038;SDS011;9652;49.014;12.052;2023-07-31T02:18:08;3.23;;;1.80;;
19038;SDS011;9652;49.014;12.052;2023-07-31T02:20:35;3.53;;;1.90;;
19038;SDS011;9652;49.014;12.052;2023-07-31T02:23:02;2.30;;;1.80;;
19038;SDS011;9652;49.014;12.052;2023-07-31T02:25:29;2.37;;;2.00;;
19038;SDS011;9652;49.014;12.052;2023-07-31T02:27:56;3.23;;;2.07;;
19038;SDS011;9652;49.014;12.052;2023-07-31T02:30:24;2.17;;;1.97;;
19038;SDS011;9652;49.014;12.052;2023-07-31T02:32:53;2.03;;;1.90;;
19038;SDS011;9652;49.014;12.052;2023-07-31T02:35:20;3.60;;;2.30;;
19038;SDS011;9652;49.014;12.052;2023-07-31T02:37:47;5.63;;;2.20;;
19038;SDS011;9652;49.014;12.052;2023-07-31T02:40:14;2.10;;;1.87;;
19038;SDS011;9652;49.014;12.052;2023-07-31T02:42:41;3.17;;;1.70;;
19038;SDS011;9652;49.014;12.052;2023-07-31T02:45:08;3.03;;;1.90;;
19038;SDS011;9652;49.014;12.052;2023-07-31T02:47:36;2.27;;;1.70;;
19038;SDS011;9652;49.014;12.052;2023-07-31T02:50:05;3.87;;;2.03;;
19038;SDS011;9652;49.014;12.052;2023-07-31T02:52:33;2.63;;;1.97;;
19038;SDS011;9652;49.014;12.052;2023-07-31T02:55:00;2.70;;;2.50;;
19038;SDS011;9652;49.014;12.052;2023-07-31T02:57:27;3.43;;;2.00;;
19038;SDS011;9652;49.014;12.052;2023-07-31T02:59:54;1.80;;;1.70;;
19038;SDS011;9652;49.014;12.052;2023-07-31T03:02:21;2.47;;;2.23;;
19038;SDS011;9652;49.014;12.052;2023-07-31T03:04:48;2.03;;;1.83;;
19038;SDS011;9652;49.014;12.052;2023-07-31T03:07:17;3.30;;;2.10;;
19038;SDS011;9652;49.014;12.052;2023-07-31T03:09:44;3.00;;;2.33;;
19038;SDS011;9652;49.014;12.052;2023-07-31T03:12:11;3.03;;;1.90;;
19038;SDS011;9652;49.014;12.052;2023-07-31T03:14:38;2.37;;;2.17;;
19038;SDS011;9652;49.014;12.052;2023-07-31T03:17:05;1.97;;;1.57;;
19038;SDS011;9652;49.014;12.052;2023-07-31T03:19:32;3.10;;;1.70;;
19038;SDS011;9652;49.014;12.052;2023-07-31T03:21:59;2.30;;;2.10;;
19038;SDS011;9652;49.014;12.052;2023-07-31T03:24:29;2.03;;;1.83;;
19038;SDS011;9652;49.014;12.052;2023-07-31T03:26:56;2.03;;;1.80;;
19038;SDS011;9652;49.014;12.052;2023-07-31T03:29:23;2.30;;;1.60;;
19038;SDS011;9652;49.014;12.052;2023-07-31T03:31:51;2.00;;;1.90;;
19038;SDS011;9652;49.014;12.052;2023-07-31T03:34:18;2.50;;;2.07;;
19038;SDS011;9652;49.014;12.052;2023-07-31T03:36:45;1.77;;;1.63;;
19038;SDS011;9652;49.014;12.052;2023-07-31T03:39:12;1.80;;;1.70;;
19038;SDS011;9652;49.014;12.052;2023-07-31T03:41:41;2.53;;;2.00;;
19038;SDS011;9652;49.014;12.052;2023-07-31T03:44:08;3.87;;;2.30;;
19038;SDS011;9652;49.014;12.052;2023-07-31T03:46:35;1.77;;;1.67;;
19038;SDS011;9652;49.014;12.052;2023-07-31T03:49:02;2.37;;;2.00;;
19038;SDS011;9652;49.014;12.052;2023-07-31T03:51:29;1.80;;;1.70;;
19038;SDS011;9652;49.014;12.052;2023-07-31T03:53:56;2.37;;;2.00;;
19038;SDS011;9652;49.014;12.052;2023-07-31T03:56:23;3.87;;;1.67;;
19038;SDS011;9652;49.014;12.052;2023-07-31T03:58:52;2.40;;;2.20;;
19038;SDS011;9652;49.014;12.052;2023-07-31T04:01:19;1.90;;;1.80;;
19038;SDS011;9652;49.014;12.052;2023-07-31T04:03:46;2.50;;;1.93;;
19038;SDS011;9652;49.014;12.052;2023-07-31T04:06:13;2.20;;;2.00;;
19038;SDS011;9652;49.014;12.052;2023-07-31T04:08:43;2.63;;;2.43;;
19038;SDS011;9652;49.014;12.052;2023-07-31T04:11:10;3.27;;;2.57;;
19038;SDS011;9652;49.014;12.052;2023-07-31T04:13:37;2.70;;;2.10;;
19038;SDS011;9652;49.014;12.052;2023-07-31T04:16:06;2.30;;;1.93;;
19038;SDS011;9652;49.014;12.052;2023-07-31T04:18:33;4.33;;;2.87;;
19038;SDS011;9652;49.014;12.052;2023-07-31T04:21:01;2.17;;;2.00;;
19038;SDS011;9652;49.014;12.052;2023-07-31T04:23:28;4.13;;;2.07;;
19038;SDS011;9652;49.014;12.052;2023-07-31T04:25:56;3.00;;;2.20;;
19038;SDS011;9652;49.014;12.052;2023-07-31T04:28:23;2.90;;;2.60;;
19038;SDS011;9652;49.014;12.052;2023-07-31T04:30:51;3.17;;;2.00;;
19038;SDS011;9652;49.014;12.052;2023-07-31T04:33:25;2.47;;;2.03;;
19038;SDS011;9652;49.014;12.052;2023-07-31T04:35:53;3.00;;;2.63;;
19038;SDS011;9652;49.014;12.052;2023-07-31T04:38:20;3.27;;;2.10;;
19038;SDS011;9652;49.014;12.052;2023-07-31T04:40:48;2.53;;;2.10;;
19038;SDS011;9652;49.014;12.052;2023-07-31T04:43:15;1.97;;;1.77;;
19038;SDS011;9652;49.014;12.052;2023-07-31T04:45:44;2.07;;;1.80;;
19038;SDS011;9652;49.014;12.052;2023-07-31T04:48:13;3.87;;;1.93;;
19038;SDS011;9652;49.014;12.052;2023-07-31T04:50:42;4.20;;;2.00;;
19038;SDS011;9652;49.014;12.052;2023-07-31T04:53:09;2.73;;;2.07;;
19038;SDS011;9652;49.014;12.052;2023-07-31T04:55:36;2.43;;;1.80;;
19038;SDS011;9652;49.014;12.052;2023-07-31T04:58:03;1.70;;;1.60;;
19038;SDS011;9652;49.014;12.052;2023-07-31T05:00:31;1.70;;;1.60;;
19038;SDS011;9652;49.014;12.052;2023-07-31T05:02:58;2.40;;;1.80;;
19038;SDS011;9652;49.014;12.052;2023-07-31T05:05:25;2.63;;;1.73;;
19038;SDS011;9652;49.014;12.052;2023-07-31T05:07:54;3.53;;;1.90;;
19038;SDS011;9652;49.014;12.052;2023-07-31T05:10:21;4.27;;;1.70;;
19038;SDS011;9652;49.014;12.052;2023-07-31T05:12:48;2.30;;;1.60;;
19038;SDS011;9652;49.014;12.052;2023-07-31T05:15:15;2.83;;;1.70;;
19038;SDS011;9652;49.014;12.052;2023-07-31T05:17:42;4.87;;;1.77;;
19038;SDS011;9652;49.014;12.052;2023-07-31T05:20:09;2.00;;;1.63;;
19038;SDS011;9652;49.014;12.052;2023-07-31T05:22:38;2.93;;;1.93;;
19038;SDS011;9652;49.014;12.052;2023-07-31T05:25:08;1.63;;;1.53;;
19038;SDS011;9652;49.014;12.052;2023-07-31T05:27:35;4.10;;;1.67;;
19038;SDS011;9652;49.014;12.052;2023-07-31T05:30:02;4.67;;;1.90;;
19038;SDS011;9652;49.014;12.052;2023-07-31T05:32:30;1.83;;;1.67;;
19038;SDS011;9652;49.014;12.052;2023-07-31T05:34:58;2.27;;;1.70;;
19038;SDS011;9652;49.014;12.052;2023-07-31T05:37:26;2.30;;;1.50;;
19038;SDS011;9652;49.014;12.052;2023-07-31T05:39:53;4.27;;;1.77;;
19038;SDS011;9652;49.014;12.052;2023-07-31T05:42:21;2.23;;;1.70;;
19038;SDS011;9652;49.014;12.052;2023-07-31T05:44:48;2.67;;;1.80;;
19038;SDS011;9652;49.014;12.052;2023-07-31T05:47:16;4.97;;;2.00;;
19038;SDS011;9652;49.014;12.052;2023-07-31T05:49:43;1.83;;;1.37;;
19038;SDS011;9652;49.014;12.052;2023-07-31T05:52:10;3.07;;;1.50;;
19038;SDS011;9652;49.014;12.052;2023-07-31T05:54:37;4.07;;;1.63;;
19038;SDS011;9652;49.014;12.052;2023-07-31T05:57:04;3.57;;;1.60;;
19038;SDS011;9652;49.014;12.052;2023-07-31T05:59:33;3.27;;;1.47;;
19038;SDS011;9652;49.014;12.052;2023-07-31T06:02:00;2.00;;;1.57;;
19038;SDS011;9652;49.014;12.052;2023-07-31T06:04:28;3.90;;;1.60;;
19038;SDS011;9652;49.014;12.052;2023-07-31T06:06:55;2.03;;;1.70;;
19038;SDS011;9652;49.014;12.052;2023-07-31T06:09:22;1.93;;;1.53;;
19038;SDS011;9652;49.014;12.052;2023-07-31T06:11:51;9.87;;;1.80;;
19038;SDS011;9652;49.014;12.052;2023-07-31T06:14:18;2.57;;;1.60;;
19038;SDS011;9652;49.014;12.052;2023-07-31T06:16:46;2.80;;;1.57;;
19038;SDS011;9652;49.014;12.052;2023-07-31T06:19:13;1.67;;;1.53;;
19038;SDS011;9652;49.014;12.052;2023-07-31T06:21:40;6.87;;;2.23;;
19038;SDS011;9652;49.014;12.052;2023-07-31T06:24:09;2.03;;;1.70;;
19038;SDS011;9652;49.014;12.052;2023-07-31T06:26:37;1.70;;;1.60;;
19038;SDS011;9652;49.014;12.052;2023-07-31T06:29:04;3.00;;;1.50;;
19038;SDS011;9652;49.014;12.052;2023-07-31T06:31:32;2.57;;;1.23;;
19038;SDS011;9652;49.014;12.052;2023-07-31T06:34:00;2.40;;;1.70;;
19038;SDS011;9652;49.014;12.052;2023-07-31T06:36:27;2.93;;;1.73;;
19038;SDS011;9652;49.014;12.052;2023-07-31T06:38:54;6.73;;;1.50;;
19038;SDS011;9652;49.014;12.052;2023-07-31T06:41:21;2.13;;;1.40;;
19038;SDS011;9652;49.014;12.052;2023-07-31T06:43:48;2.33;;;1.40;;
19038;SDS011;9652;49.014;12.052;2023-07-31T06:46:15;1.77;;;1.20;;
19038;SDS011;9652;49.014;12.052;2023-07-31T06:48:42;3.13;;;1.03;;
19038;SDS011;9652;49.014;12.052;2023-07-31T06:51:11;2.13;;;1.37;;
19038;SDS011;9652;49.014;12.052;2023-07-31T06:53:38;2.93;;;1.57;;
19038;SDS011;9652;49.014;12.052;2023-07-31T06:56:06;2.30;;;1.13;;
19038;SDS011;9652;49.014;12.052;2023-07-31T06:58:33;4.10;;;1.10;;
19038;SDS011;9652;49.014;12.052;2023-07-31T07:01:00;3.37;;;1.50;;
19038;SDS011;9652;49.014;12.052;2023-07-31T07:03:27;3.03;;;1.07;;
19038;SDS011;9652;49.014;12.052;2023-07-31T07:05:54;1.37;;;1.07;;
19038;SDS011;9652;49.014;12.052;2023-07-31T07:08:23;2.93;;;1.50;;
19038;SDS011;9652;49.014;12.052;2023-07-31T07:10:51;2.90;;;1.33;;
19038;SDS011;9652;49.014;12.052;2023-07-31T07:13:18;3.17;;;1.20;;
19038;SDS011;9652;49.014;12.052;2023-07-31T07:15:47;3.07;;;1.40;;
19038;SDS011;9652;49.014;12.052;2023-07-31T07:18:15;2.13;;;1.17;;
19038;SDS011;9652;49.014;12.052;2023-07-31T07:20:45;3.20;;;1.17;;
19038;SDS011;9652;49.014;12.052;2023-07-31T07:23:14;2.07;;;1.30;;
19038;SDS011;9652;49.014;12.052;2023-07-31T07:25:42;2.97;;;1.03;;
19038;SDS011;9652;49.014;12.052;2023-07-31T07:28:10;1.80;;;1.27;;
19038;SDS011;9652;49.014;12.052;2023-07-31T07:30:37;6.67;;;1.30;;
19038;SDS011;9652;49.014;12.052;2023-07-31T07:33:04;2.70;;;1.20;;
19038;SDS011;9652;49.014;12.052;2023-07-31T07:35:33;1.93;;;1.03;;
19038;SDS011;9652;49.014;12.052;2023-07-31T07:38:01;2.33;;;1.10;;
19038;SDS011;9652;49.014;12.052;2023-07-31T07:40:29;2.13;;;1.30;;
19038;SDS011;9652;49.014;12.052;2023-07-31T07:42:58;3.03;;;1.60;;
19038;SDS011;9652;49.014;12.052;2023-07-31T07:45:25;2.60;;;0.97;;
19038;SDS011;9652;49.014;12.052;2023-07-31T07:47:52;2.13;;;1.00;;
19038;SDS011;9652;49.014;12.052;2023-07-31T07:50:20;1.60;;;1.13;;
19038;SDS011;9652;49.014;12.052;2023-07-31T07:52:47;1.77;;;1.10;;
19038;SDS011;9652;49.014;12.052;2023-07-31T07:55:14;2.20;;;1.20;;
19038;SDS011;9652;49.014;12.052;2023-07-31T07:57:41;1.30;;;1.10;;
19038;SDS011;9652;49.014;12.052;2023-07-31T08:00:11;1.83;;;1.10;;
19038;SDS011;9652;49.014;12.052;2023-07-31T08:02:39;3.23;;;1.00;;
19038;SDS011;9652;49.014;12.052;2023-07-31T08:05:07;1.97;;;1.30;;
19038;SDS011;9652;49.014;12.052;2023-07-31T08:07:34;2.40;;;0.87;;
19038;SDS011;9652;49.014;12.052;2023-07-31T08:10:02;1.47;;;0.93;;
19038;SDS011;9652;49.014;12.052;2023-07-31T08:12:29;1.60;;;1.00;;
19038;SDS011;9652;49.014;12.052;2023-07-31T08:14:56;1.47;;;1.00;;
19038;SDS011;9652;49.014;12.052;2023-07-31T08:17:26;2.40;;;1.27;;
19038;SDS011;9652;49.014;12.052;2023-07-31T08:19:53;1.10;;;0.90;;
19038;SDS011;9652;49.014;12.052;2023-07-31T08:22:23;2.47;;;1.17;;
19038;SDS011;9652;49.014;12.052;2023-07-31T08:24:50;3.30;;;1.20;;
19038;SDS011;9652;49.014;12.052;2023-07-31T08:27:17;1.60;;;1.20;;
19038;SDS011;9652;49.014;12.052;2023-07-31T08:29:44;2.83;;;1.00;;
19038;SDS011;9652;49.014;12.052;2023-07-31T08:32:11;1.53;;;1.00;;
19038;SDS011;9652;49.014;12.052;2023-07-31T08:34:40;1.20;;;1.00;;
19038;SDS011;9652;49.014;12.052;2023-07-31T08:37:07;2.00;;;1.27;;
19038;SDS011;9652;49.014;12.052;2023-07-31T08:39:36;1.37;;;0.90;;
19038;SDS011;9652;49.014;12.052;2023-07-31T08:42:07;1.10;;;0.90;;
19038;SDS011;9652;49.014;12.052;2023-07-31T08:44:35;2.13;;;1.20;;
19038;SDS011;9652;49.014;12.052;2023-07-31T08:47:04;2.40;;;1.13;;
19038;SDS011;9652;49.014;12.052;2023-07-31T08:49:32;2.03;;;1.13;;
19038;SDS011;9652;49.014;12.052;2023-07-31T08:52:02;2.03;;;1.20;;
19038;SDS011;9652;49.014;12.052;2023-07-31T08:54:30;3.97;;;1.17;;
19038;SDS011;9652;49.014;12.052;2023-07-31T08:56:58;3.03;;;1.20;;
19038;SDS011;9652;49.014;12.052;2023-07-31T08:59:26;1.30;;;1.07;;
19038;SDS011;9652;49.014;12.052;2023-07-31T09:01:57;2.57;;;1.10;;
19038;SDS011;9652;49.014;12.052;2023-07-31T09:04:32;3.50;;;1.27;;
19038;SDS011;9652;49.014;12.052;2023-07-31T09:07:00;2.87;;;1.23;;
19038;SDS011;9652;49.014;12.052;2023-07-31T09:09:30;2.57;;;1.20;;
19038;SDS011;9652;49.014;12.052;2023-07-31T09:11:58;3.30;;;0.97;;
19038;SDS011;9652;49.014;12.052;2023-07-31T09:14:25;2.77;;;1.17;;
19038;SDS011;9652;49.014;12.052;2023-07-31T09:16:53;2.07;;;1.40;;
19038;SDS011;9652;49.014;12.052;2023-07-31T09:19:27;1.43;;;1.13;;
19038;SDS011;9652;49.014;12.052;2023-07-31T09:22:04;2.90;;;1.13;;
19038;SDS011;9652;49.014;12.052;2023-07-31T09:24:33;3.33;;;1.23;;
19038;SDS011;9652;49.014;12.052;2023-07-31T09:27:01;2.10;;;1.23;;
19038;SDS011;9652;49.014;12.052;2023-07-31T09:29:29;3.03;;;1.60;;
19038;SDS011;9652;49.014;12.052;2023-07-31T09:31:56;3.20;;;1.40;;
19038;SDS011;9652;49.014;12.052;2023-07-31T09:34:28;2.33;;;1.10;;
19038;SDS011;9652;49.014;12.052;2023-07-31T09:37:04;1.83;;;1.50;;
19038;SDS011;9652;49.014;12.052;2023-07-31T09:39:31;2.07;;;0.90;;
19038;SDS011;9652;49.014;12.052;2023-07-31T09:41:58;3.07;;;1.10;;
19038;SDS011;9652;49.014;12.052;2023-07-31T09:44:37;3.70;;;1.47;;
19038;SDS011;9652;49.014;12.052;2023-07-31T09:47:05;3.57;;;1.13;;
19038;SDS011;9652;49.014;12.052;2023-07-31T09:49:33;5.87;;;1.33;;
19038;SDS011;9652;49.014;12.052;2023-07-31T09:52:00;3.20;;;1.53;;
19038;SDS011;9652;49.014;12.052;2023-07-31T09:54:28;2.17;;;1.20;;
19038;SDS011;9652;49.014;12.052;2023-07-31T09:56:55;2.40;;;1.00;;
19038;SDS011;9652;49.014;12.052;2023-07-31T09:59:26;2.93;;;1.40;;
19038;SDS011;9652;49.014;12.052;2023-07-31T10:01:53;5.00;;;1.53;;
19038;SDS011;9652;49.014;12.052;2023-07-31T10:04:23;3.03;;;1.13;;
19038;SDS011;9652;49.014;12.052;2023-07-31T10:06:55;4.43;;;1.30;;
19038;SDS011;9652;49.014;12.052;2023-07-31T10:09:25;3.65;;;1.80;;
19038;SDS011;9652;49.014;12.052;2023-07-31T10:11:59;4.80;;;1.13;;
19038;SDS011;9652;49.014;12.052;2023-07-31T10:14:31;4.03;;;1.50;;
19038;SDS011;9652;49.014;12.052;2023-07-31T10:16:59;2.53;;;1.00;;
19038;SDS011;9652;49.014;12.052;2023-07-31T10:19:28;2.03;;;1.27;;
19038;SDS011;9652;49.014;12.052;2023-07-31T10:21:57;1.57;;;1.17;;
19038;SDS011;9652;49.014;12.052;2023-07-31T10:24:30;2.80;;;1.10;;
19038;SDS011;9652;49.014;12.052;2023-07-31T10:27:00;2.23;;;0.90;;
19038;SDS011;9652;49.014;12.052;2023-07-31T10:29:28;2.60;;;0.97;;
19038;SDS011;9652;49.014;12.052;2023-07-31T10:31:57;3.40;;;1.10;;
19038;SDS011;9652;49.014;12.052;2023-07-31T10:34:25;1.33;;;0.90;;
19038;SDS011;9652;49.014;12.052;2023-07-31T10:39:58;1.30;;;1.20;;
19038;SDS011;9652;49.014;12.052;2023-07-31T10:42:29;2.67;;;1.00;;
19038;SDS011;9652;49.014;12.052;2023-07-31T10:45:00;2.30;;;1.23;;
19038;SDS011;9652;49.014;12.052;2023-07-31T10:47:30;1.63;;;1.00;;
19038;SDS011;9652;49.014;12.052;2023-07-31T10:50:14;2.42;;;0.98;;
19038;SDS011;9652;49.014;12.052;2023-07-31T10:52:47;6.93;;;1.10;;
19038;SDS011;9652;49.014;12.052;2023-07-31T10:55:30;1.98;;;1.10;;
19038;SDS011;9652;49.014;12.052;2023-07-31T10:58:05;2.72;;;1.13;;
19038;SDS011;9652;49.014;12.052;2023-07-31T11:00:33;1.27;;;1.00;;
19038;SDS011;9652;49.014;12.052;2023-07-31T11:03:04;3.70;;;1.10;;
19038;SDS011;9652;49.014;12.052;2023-07-31T11:05:44;1.27;;;0.90;;
19038;SDS011;9652;49.014;12.052;2023-07-31T11:08:14;1.85;;;1.20;;
19038;SDS011;9652;49.014;12.052;2023-07-31T11:10:46;1.25;;;1.00;;
19038;SDS011;9652;49.014;12.052;2023-07-31T11:13:15;1.48;;;0.90;;
19038;SDS011;9652;49.014;12.052;2023-07-31T11:15:42;2.35;;;0.98;;
19038;SDS011;9652;49.014;12.052;2023-07-31T11:18:09;2.03;;;1.10;;
19038;SDS011;9652;49.014;12.052;2023-07-31T11:20:37;1.88;;;0.98;;
19038;SDS011;9652;49.014;12.052;2023-07-31T11:23:06;2.50;;;1.20;;
19038;SDS011;9652;49.014;12.052;2023-07-31T11:25:36;2.88;;;1.15;;
19038;SDS011;9652;49.014;12.052;2023-07-31T11:28:08;2.05;;;1.00;;
19038;SDS011;9652;49.014;12.052;2023-07-31T11:30:37;2.03;;;1.10;;
19038;SDS011;9652;49.014;12.052;2023-07-31T11:33:05;1.63;;;0.98;;
19038;SDS011;9652;49.014;12.052;2023-07-31T11:35:35;2.28;;;1.35;;
19038;SDS011;9652;49.014;12.052;2023-07-31T11:38:07;1.50;;;1.00;;
19038;SDS011;9652;49.014;12.052;2023-07-31T11:40:40;1.95;;;1.15;;
19038;SDS011;9652;49.014;12.052;2023-07-31T11:43:09;3.33;;;1.20;;
19038;SDS011;9652;49.014;12.052;2023-07-31T11:45:41;1.92;;;1.00;;
19038;SDS011;9652;49.014;12.052;2023-07-31T11:48:17;4.85;;;1.30;;
19038;SDS011;9652;49.014;12.052;2023-07-31T11:50:47;2.15;;;1.30;;
19038;SDS011;9652;49.014;12.052;2023-07-31T11:53:16;1.75;;;1.10;;
19038;SDS011;9652;49.014;12.052;2023-07-31T11:55:48;2.00;;;1.10;;
19038;SDS011;9652;49.014;12.052;2023-07-31T11:58:17;1.48;;;1.10;;
19038;SDS011;9652;49.014;12.052;2023-07-31T12:00:45;2.13;;;1.20;;
19038;SDS011;9652;49.014;12.052;2023-07-31T12:03:14;1.42;;;1.20;;
19038;SDS011;9652;49.014;12.052;2023-07-31T12:05:42;2.17;;;1.10;;
19038;SDS011;9652;49.014;12.052;2023-07-31T12:08:09;1.42;;;1.00;;
19038;SDS011;9652;49.014;12.052;2023-07-31T12:10:38;1.73;;;1.23;;
19038;SDS011;9652;49.014;12.052;2023-07-31T12:13:07;2.97;;;1.50;;
19038;SDS011;9652;49.014;12.052;2023-07-31T12:15:40;2.17;;;1.30;;
19038;SDS011;9652;49.014;12.052;2023-07-31T12:18:09;1.10;;;1.05;;
19038;SDS011;9652;49.014;12.052;2023-07-31T12:20:41;2.15;;;1.00;;
19038;SDS011;9652;49.014;12.052;2023-07-31T12:23:14;2.40;;;1.67;;
19038;SDS011;9652;49.014;12.052;2023-07-31T12:25:42;2.45;;;1.30;;
19038;SDS011;9652;49.014;12.052;2023-07-31T12:28:10;2.15;;;1.25;;
19038;SDS011;9652;49.014;12.052;2023-07-31T12:30:41;1.45;;;1.10;;
19038;SDS011;9652;49.014;12.052;2023-07-31T12:33:12;3.35;;;1.20;;
19038;SDS011;9652;49.014;12.052;2023-07-31T12:35:41;1.65;;;1.13;;
19038;SDS011;9652;49.014;12.052;2023-07-31T12:38:11;1.50;;;0.93;;
19038;SDS011;9652;49.014;12.052;2023-07-31T12:40:38;1.63;;;1.10;;
19038;SDS011;9652;49.014;12.052;2023-07-31T12:43:06;1.38;;;0.82;;
19038;SDS011;9652;49.014;12.052;2023-07-31T12:45:34;2.45;;;1.10;;
19038;SDS011;9652;49.014;12.052;2023-07-31T12:48:03;1.67;;;1.15;;
19038;SDS011;9652;49.014;12.052;2023-07-31T12:50:30;2.45;;;1.17;;
19038;SDS011;9652;49.014;12.052;2023-07-31T12:52:57;2.25;;;1.25;;
19038;SDS011;9652;49.014;12.052;2023-07-31T12:55:25;1.83;;;0.90;;
19038;SDS011;9652;49.014;12.052;2023-07-31T12:57:52;2.38;;;1.25;;
19038;SDS011;9652;49.014;12.052;2023-07-31T13:00:19;4.00;;;1.10;;
19038;SDS011;9652;49.014;12.052;2023-07-31T13:02:46;1.67;;;1.00;;
19038;SDS011;9652;49.014;12.052;2023-07-31T13:05:15;3.80;;;1.30;;
19038;SDS011;9652;49.014;12.052;2023-07-31T13:07:43;2.95;;;0.98;;
19038;SDS011;9652;49.014;12.052;2023-07-31T13:10:10;2.53;;;1.10;;
19038;SDS011;9652;49.014;12.052;2023-07-31T13:12:37;2.45;;;1.35;;
19038;SDS011;9652;49.014;12.052;2023-07-31T13:15:05;1.70;;;1.10;;
19038;SDS011;9652;49.014;12.052;2023-07-31T13:17:33;1.83;;;1.00;;
19038;SDS011;9652;49.014;12.052;2023-07-31T13:20:02;4.00;;;1.33;;
19038;SDS011;9652;49.014;12.052;2023-07-31T13:22:31;2.08;;;1.23;;
19038;SDS011;9652;49.014;12.052;2023-07-31T13:24:58;3.75;;;1.48;;
19038;SDS011;9652;49.014;12.052;2023-07-31T13:27:25;3.92;;;1.58;;
19038;SDS011;9652;49.014;12.052;2023-07-31T13:29:53;3.15;;;1.20;;
19038;SDS011;9652;49.014;12.052;2023-07-31T13:32:20;2.13;;;1.15;;
19038;SDS011;9652;49.014;12.052;2023-07-31T13:34:47;3.00;;;1.20;;
19038;SDS011;9652;49.014;12.052;2023-07-31T13:37:14;1.73;;;1.13;;
19038;SDS011;9652;49.014;12.052;2023-07-31T13:39:43;1.58;;;0.90;;
19038;SDS011;9652;49.014;12.052;2023-07-31T13:42:10;2.05;;;1.35;;
19038;SDS011;9652;49.014;12.052;2023-07-31T13:44:38;1.38;;;0.95;;
19038;SDS011;9652;49.014;12.052;2023-07-31T13:47:05;2.42;;;1.23;;
19038;SDS011;9652;49.014;12.052;2023-07-31T13:49:33;2.50;;;1.40;;
19038;SDS011;9652;49.014;12.052;2023-07-31T13:52:01;1.70;;;1.00;;
19038;SDS011;9652;49.014;12.052;2023-07-31T13:54:28;1.92;;;1.00;;
19038;SDS011;9652;49.014;12.052;2023-07-31T13:56:57;4.05;;;1.50;;
19038;SDS011;9652;49.014;12.052;2023-07-31T13:59:24;1.88;;;1.13;;
19038;SDS011;9652;49.014;12.052;2023-07-31T14:01:51;0.73;;;0.70;;
19038;SDS011;9652;49.014;12.052;2023-07-31T14:04:18;2.47;;;1.48;;
19038;SDS011;9652;49.014;12.052;2023-07-31T14:06:45;1.75;;;1.25;;
19038;SDS011;9652;49.014;12.052;2023-07-31T14:09:15;1.38;;;0.88;;
19038;SDS011;9652;49.014;12.052;2023-07-31T14:11:42;1.77;;;1.05;;
19038;SDS011;9652;49.014;12.052;2023-07-31T14:14:11;1.80;;;1.10;;
19038;SDS011;9652;49.014;12.052;2023-07-31T14:16:37;1.63;;;1.17;;
19038;SDS011;9652;49.014;12.052;2023-07-31T14:19:04;1.98;;;1.20;;
19038;SDS011;9652;49.014;12.052;2023-07-31T14:21:32;1.40;;;1.17;;
19038;SDS011;9652;49.014;12.052;2023-07-31T14:23:59;2.60;;;1.10;;
19038;SDS011;9652;49.014;12.052;2023-07-31T14:26:26;1.63;;;1.52;;
19038;SDS011;9652;49.014;12.052;2023-07-31T14:28:54;2.65;;;1.23;;
19038;SDS011;9652;49.014;12.052;2023-07-31T14:31:22;1.52;;;1.00;;
19038;SDS011;9652;49.014;12.052;2023-07-31T14:33:49;1.27;;;0.90;;
19038;SDS011;9652;49.014;12.052;2023-07-31T14:36:16;2.17;;;1.35;;
19038;SDS011;9652;49.014;12.052;2023-07-31T14:38:43;1.95;;;1.15;;
19038;SDS011;9652;49.014;12.052;2023-07-31T14:41:11;2.05;;;1.20;;
19038;SDS011;9652;49.014;12.052;2023-07-31T14:43:38;1.63;;;1.00;;
19038;SDS011;9652;49.014;12.052;2023-07-31T14:46:05;1.88;;;1.20;;
19038;SDS011;9652;49.014;12.052;2023-07-31T14:48:33;2.50;;;1.40;;
19038;SDS011;9652;49.014;12.052;2023-07-31T14:51:00;2.28;;;1.38;;
19038;SDS011;9652;49.014;12.052;2023-07-31T14:53:27;2.60;;;1.23;;
19038;SDS011;9652;49.014;12.052;2023-07-31T14:55:54;1.27;;;1.10;;
19038;SDS011;9652;49.014;12.052;2023-07-31T14:58:22;4.03;;;1.40;;
19038;SDS011;9652;49.014;12.052;2023-07-31T15:00:49;2.30;;;1.48;;